sensor_id;sensor_type;location;lat;lon;timestamp;P1;durP1;ratioP1;P2;durP2;ratioP2
34739;SDS011;20967;48.442;9.994;2023-04-24T00:01:28;5.58;;;2.05;;
34739;SDS011;20967;48.442;9.994;2023-04-24T00:03:57;2.08;;;1.60;;
34739;SDS011;20967;48.442;9.994;2023-04-24T00:06:26;5.33;;;1.80;;
34739;SDS011;20967;48.442;9.994;2023-04-24T00:11:30;2.77;;;1.42;;
34739;SDS011;20967;48.442;9.994;2023-04-24T00:13:57;3.80;;;1.60;;
34739;SDS011;20967;48.442;9.994;2023-04-24T00:16:25;6.22;;;1.92;;
34739;SDS011;20967;48.442;9.994;2023-04-24T00:18:53;4.50;;;1.98;;
34739;SDS011;20967;48.442;9.994;2023-04-24T00:21:20;3.70;;;1.65;;
34739;SDS011;20967;48.442;9.994;2023-04-24T00:23:50;2.72;;;1.37;;
34739;SDS011;20967;48.442;9.994;2023-04-24T00:26:19;5.55;;;1.62;;
34739;SDS011;20967;48.442;9.994;2023-04-24T00:28:46;3.72;;;1.30;;
34739;SDS011;20967;48.442;9.994;2023-04-24T00:31:14;3.33;;;1.70;;
34739;SDS011;20967;48.442;9.994;2023-04-24T00:33:42;6.50;;;1.40;;
34739;SDS011;20967;48.442;9.994;2023-04-24T00:36:14;2.42;;;1.50;;
34739;SDS011;20967;48.442;9.994;2023-04-24T00:38:41;5.70;;;1.77;;
34739;SDS011;20967;48.442;9.994;2023-04-24T00:41:09;1.98;;;1.22;;
34739;SDS011;20967;48.442;9.994;2023-04-24T00:43:36;4.60;;;1.98;;
34739;SDS011;20967;48.442;9.994;2023-04-24T00:46:04;3.40;;;1.67;;
34739;SDS011;20967;48.442;9.994;2023-04-24T00:48:32;5.67;;;1.32;;
34739;SDS011;20967;48.442;9.994;2023-04-24T00:51:00;8.43;;;1.60;;
34739;SDS011;20967;48.442;9.994;2023-04-24T00:53:27;4.15;;;1.40;;
34739;SDS011;20967;48.442;9.994;2023-04-24T00:55:55;3.75;;;1.40;;
34739;SDS011;20967;48.442;9.994;2023-04-24T00:58:23;2.40;;;1.45;;
34739;SDS011;20967;48.442;9.994;2023-04-24T01:00:51;2.20;;;1.42;;
34739;SDS011;20967;48.442;9.994;2023-04-24T01:03:20;2.27;;;1.45;;
34739;SDS011;20967;48.442;9.994;2023-04-24T01:05:49;2.90;;;1.40;;
34739;SDS011;20967;48.442;9.994;2023-04-24T01:08:17;6.40;;;1.50;;
34739;SDS011;20967;48.442;9.994;2023-04-24T01:10:44;3.45;;;1.40;;
34739;SDS011;20967;48.442;9.994;2023-04-24T01:13:12;2.87;;;1.60;;
34739;SDS011;20967;48.442;9.994;2023-04-24T01:15:40;2.72;;;1.30;;
34739;SDS011;20967;48.442;9.994;2023-04-24T01:18:08;5.15;;;1.67;;
34739;SDS011;20967;48.442;9.994;2023-04-24T01:20:35;4.58;;;1.55;;
34739;SDS011;20967;48.442;9.994;2023-04-24T01:23:06;2.30;;;1.50;;
34739;SDS011;20967;48.442;9.994;2023-04-24T01:25:34;1.75;;;1.27;;
34739;SDS011;20967;48.442;9.994;2023-04-24T01:28:01;2.15;;;1.50;;
34739;SDS011;20967;48.442;9.994;2023-04-24T01:30:29;2.33;;;1.40;;
34739;SDS011;20967;48.442;9.994;2023-04-24T01:32:57;1.80;;;1.32;;
34739;SDS011;20967;48.442;9.994;2023-04-24T01:35:28;4.70;;;1.52;;
34739;SDS011;20967;48.442;9.994;2023-04-24T01:37:55;2.45;;;1.52;;
34739;SDS011;20967;48.442;9.994;2023-04-24T01:40:23;2.83;;;1.37;;
34739;SDS011;20967;48.442;9.994;2023-04-24T01:42:50;2.37;;;1.80;;
34739;SDS011;20967;48.442;9.994;2023-04-24T01:45:18;3.08;;;1.80;;
34739;SDS011;20967;48.442;9.994;2023-04-24T01:47:46;1.80;;;1.60;;
34739;SDS011;20967;48.442;9.994;2023-04-24T01:50:15;2.22;;;1.70;;
34739;SDS011;20967;48.442;9.994;2023-04-24T01:52:42;2.27;;;1.77;;
34739;SDS011;20967;48.442;9.994;2023-04-24T01:55:12;3.37;;;1.60;;
34739;SDS011;20967;48.442;9.994;2023-04-24T01:57:39;1.87;;;1.20;;
34739;SDS011;20967;48.442;9.994;2023-04-24T02:00:07;2.75;;;1.52;;
34739;SDS011;20967;48.442;9.994;2023-04-24T02:02:35;4.05;;;1.75;;
34739;SDS011;20967;48.442;9.994;2023-04-24T02:05:02;2.52;;;1.57;;
34739;SDS011;20967;48.442;9.994;2023-04-24T02:07:30;2.45;;;1.65;;
34739;SDS011;20967;48.442;9.994;2023-04-24T02:09:59;3.10;;;1.80;;
34739;SDS011;20967;48.442;9.994;2023-04-24T02:12:27;2.83;;;1.92;;
34739;SDS011;20967;48.442;9.994;2023-04-24T02:14:54;3.17;;;2.25;;
34739;SDS011;20967;48.442;9.994;2023-04-24T02:17:22;3.47;;;1.77;;
34739;SDS011;20967;48.442;9.994;2023-04-24T02:19:49;4.33;;;2.33;;
34739;SDS011;20967;48.442;9.994;2023-04-24T02:22:17;2.77;;;2.20;;
34739;SDS011;20967;48.442;9.994;2023-04-24T02:24:44;6.00;;;2.00;;
34739;SDS011;20967;48.442;9.994;2023-04-24T02:27:12;6.08;;;1.50;;
34739;SDS011;20967;48.442;9.994;2023-04-24T02:29:40;4.85;;;2.15;;
34739;SDS011;20967;48.442;9.994;2023-04-24T02:32:07;3.15;;;1.92;;
34739;SDS011;20967;48.442;9.994;2023-04-24T02:34:36;5.62;;;1.82;;
34739;SDS011;20967;48.442;9.994;2023-04-24T02:37:04;3.33;;;2.00;;
34739;SDS011;20967;48.442;9.994;2023-04-24T02:39:31;4.30;;;1.70;;
34739;SDS011;20967;48.442;9.994;2023-04-24T02:41:59;6.95;;;2.08;;
34739;SDS011;20967;48.442;9.994;2023-04-24T02:44:28;2.12;;;1.50;;
34739;SDS011;20967;48.442;9.994;2023-04-24T02:46:55;8.25;;;2.25;;
34739;SDS011;20967;48.442;9.994;2023-04-24T02:49:24;2.15;;;1.92;;
34739;SDS011;20967;48.442;9.994;2023-04-24T02:51:52;6.42;;;1.95;;
34739;SDS011;20967;48.442;9.994;2023-04-24T02:54:20;2.40;;;1.80;;
34739;SDS011;20967;48.442;9.994;2023-04-24T02:56:47;3.92;;;2.15;;
34739;SDS011;20967;48.442;9.994;2023-04-24T02:59:15;2.67;;;1.67;;
34739;SDS011;20967;48.442;9.994;2023-04-24T03:01:44;4.15;;;1.57;;
34739;SDS011;20967;48.442;9.994;2023-04-24T03:04:12;2.25;;;1.40;;
34739;SDS011;20967;48.442;9.994;2023-04-24T03:06:39;7.42;;;1.50;;
34739;SDS011;20967;48.442;9.994;2023-04-24T03:09:07;8.73;;;1.50;;
34739;SDS011;20967;48.442;9.994;2023-04-24T03:11:34;4.12;;;1.57;;
34739;SDS011;20967;48.442;9.994;2023-04-24T03:14:02;2.25;;;1.35;;
34739;SDS011;20967;48.442;9.994;2023-04-24T03:16:29;1.52;;;1.27;;
34739;SDS011;20967;48.442;9.994;2023-04-24T03:18:57;3.62;;;1.60;;
34739;SDS011;20967;48.442;9.994;2023-04-24T03:21:24;1.85;;;1.10;;
34739;SDS011;20967;48.442;9.994;2023-04-24T03:23:53;1.50;;;1.20;;
34739;SDS011;20967;48.442;9.994;2023-04-24T03:26:20;1.77;;;1.55;;
34739;SDS011;20967;48.442;9.994;2023-04-24T03:28:48;2.33;;;1.32;;
34739;SDS011;20967;48.442;9.994;2023-04-24T03:31:17;5.75;;;1.87;;
34739;SDS011;20967;48.442;9.994;2023-04-24T03:33:45;2.55;;;1.40;;
34739;SDS011;20967;48.442;9.994;2023-04-24T03:36:13;4.22;;;1.70;;
34739;SDS011;20967;48.442;9.994;2023-04-24T03:38:40;4.80;;;1.92;;
34739;SDS011;20967;48.442;9.994;2023-04-24T03:41:08;5.60;;;1.98;;
34739;SDS011;20967;48.442;9.994;2023-04-24T03:43:35;5.60;;;2.10;;
34739;SDS011;20967;48.442;9.994;2023-04-24T03:46:03;4.25;;;2.10;;
34739;SDS011;20967;48.442;9.994;2023-04-24T03:48:30;5.03;;;2.25;;
34739;SDS011;20967;48.442;9.994;2023-04-24T03:50:58;4.62;;;2.25;;
34739;SDS011;20967;48.442;9.994;2023-04-24T03:53:26;4.22;;;2.22;;
34739;SDS011;20967;48.442;9.994;2023-04-24T03:55:53;3.30;;;2.40;;
34739;SDS011;20967;48.442;9.994;2023-04-24T03:58:21;3.52;;;2.10;;
34739;SDS011;20967;48.442;9.994;2023-04-24T04:00:49;2.45;;;1.92;;
34739;SDS011;20967;48.442;9.994;2023-04-24T04:03:16;4.25;;;2.27;;
34739;SDS011;20967;48.442;9.994;2023-04-24T04:05:44;3.87;;;2.55;;
34739;SDS011;20967;48.442;9.994;2023-04-24T04:08:12;4.15;;;2.62;;
34739;SDS011;20967;48.442;9.994;2023-04-24T04:10:39;5.12;;;2.70;;
34739;SDS011;20967;48.442;9.994;2023-04-24T04:13:07;3.55;;;2.50;;
34739;SDS011;20967;48.442;9.994;2023-04-24T04:15:35;4.67;;;2.80;;
34739;SDS011;20967;48.442;9.994;2023-04-24T04:18:02;3.58;;;2.72;;
34739;SDS011;20967;48.442;9.994;2023-04-24T04:20:30;4.87;;;2.65;;
34739;SDS011;20967;48.442;9.994;2023-04-24T04:22:57;6.53;;;2.70;;
34739;SDS011;20967;48.442;9.994;2023-04-24T04:25:25;3.75;;;2.42;;
34739;SDS011;20967;48.442;9.994;2023-04-24T04:27:53;6.37;;;3.25;;
34739;SDS011;20967;48.442;9.994;2023-04-24T04:30:20;5.17;;;3.02;;
34739;SDS011;20967;48.442;9.994;2023-04-24T04:32:48;7.30;;;3.47;;
34739;SDS011;20967;48.442;9.994;2023-04-24T04:35:15;5.00;;;2.80;;
34739;SDS011;20967;48.442;9.994;2023-04-24T04:37:43;4.97;;;3.20;;
34739;SDS011;20967;48.442;9.994;2023-04-24T04:40:11;5.83;;;3.40;;
34739;SDS011;20967;48.442;9.994;2023-04-24T04:42:38;8.03;;;3.40;;
34739;SDS011;20967;48.442;9.994;2023-04-24T04:45:11;5.65;;;3.37;;
34739;SDS011;20967;48.442;9.994;2023-04-24T04:47:38;4.72;;;3.02;;
34739;SDS011;20967;48.442;9.994;2023-04-24T04:50:06;4.78;;;2.87;;
34739;SDS011;20967;48.442;9.994;2023-04-24T04:52:34;7.83;;;3.47;;
34739;SDS011;20967;48.442;9.994;2023-04-24T04:55:01;6.47;;;3.92;;
34739;SDS011;20967;48.442;9.994;2023-04-24T04:57:29;6.08;;;3.83;;
34739;SDS011;20967;48.442;9.994;2023-04-24T04:59:57;6.28;;;3.27;;
34739;SDS011;20967;48.442;9.994;2023-04-24T05:02:25;6.25;;;3.27;;
34739;SDS011;20967;48.442;9.994;2023-04-24T05:04:52;5.00;;;2.77;;
34739;SDS011;20967;48.442;9.994;2023-04-24T05:07:20;5.42;;;2.80;;
34739;SDS011;20967;48.442;9.994;2023-04-24T05:09:47;4.75;;;2.75;;
34739;SDS011;20967;48.442;9.994;2023-04-24T05:12:15;4.20;;;2.67;;
34739;SDS011;20967;48.442;9.994;2023-04-24T05:14:42;3.47;;;2.22;;
34739;SDS011;20967;48.442;9.994;2023-04-24T05:17:10;6.55;;;2.75;;
34739;SDS011;20967;48.442;9.994;2023-04-24T05:19:37;3.90;;;2.87;;
34739;SDS011;20967;48.442;9.994;2023-04-24T05:22:05;3.45;;;2.27;;
34739;SDS011;20967;48.442;9.994;2023-04-24T05:24:33;4.72;;;2.37;;
34739;SDS011;20967;48.442;9.994;2023-04-24T05:27:06;3.30;;;1.95;;
34739;SDS011;20967;48.442;9.994;2023-04-24T05:29:32;3.22;;;1.98;;
34739;SDS011;20967;48.442;9.994;2023-04-24T05:32:00;3.22;;;1.80;;
34739;SDS011;20967;48.442;9.994;2023-04-24T05:34:27;2.45;;;1.80;;
34739;SDS011;20967;48.442;9.994;2023-04-24T05:36:55;2.60;;;1.90;;
34739;SDS011;20967;48.442;9.994;2023-04-24T05:39:25;4.70;;;1.50;;
34739;SDS011;20967;48.442;9.994;2023-04-24T05:41:55;3.02;;;1.30;;
34739;SDS011;20967;48.442;9.994;2023-04-24T05:44:24;2.77;;;1.30;;
34739;SDS011;20967;48.442;9.994;2023-04-24T05:46:52;4.25;;;1.40;;
34739;SDS011;20967;48.442;9.994;2023-04-24T05:49:22;2.17;;;0.95;;
34739;SDS011;20967;48.442;9.994;2023-04-24T05:51:49;3.33;;;1.05;;
34739;SDS011;20967;48.442;9.994;2023-04-24T05:54:17;2.40;;;1.17;;
34739;SDS011;20967;48.442;9.994;2023-04-24T05:56:44;4.30;;;1.17;;
34739;SDS011;20967;48.442;9.994;2023-04-24T05:59:12;2.52;;;1.10;;
34739;SDS011;20967;48.442;9.994;2023-04-24T06:01:40;2.83;;;1.12;;
34739;SDS011;20967;48.442;9.994;2023-04-24T06:04:08;1.85;;;0.98;;
34739;SDS011;20967;48.442;9.994;2023-04-24T06:06:35;3.17;;;0.90;;
34739;SDS011;20967;48.442;9.994;2023-04-24T06:09:03;1.42;;;0.80;;
34739;SDS011;20967;48.442;9.994;2023-04-24T06:11:31;4.90;;;1.07;;
34739;SDS011;20967;48.442;9.994;2023-04-24T06:13:58;2.85;;;1.02;;
34739;SDS011;20967;48.442;9.994;2023-04-24T06:16:26;1.67;;;1.20;;
34739;SDS011;20967;48.442;9.994;2023-04-24T06:18:53;2.83;;;1.00;;
34739;SDS011;20967;48.442;9.994;2023-04-24T06:21:21;2.67;;;0.82;;
34739;SDS011;20967;48.442;9.994;2023-04-24T06:23:49;1.90;;;0.90;;
34739;SDS011;20967;48.442;9.994;2023-04-24T06:26:16;2.87;;;1.02;;
34739;SDS011;20967;48.442;9.994;2023-04-24T06:28:44;2.65;;;1.10;;
34739;SDS011;20967;48.442;9.994;2023-04-24T06:31:11;2.02;;;1.17;;
34739;SDS011;20967;48.442;9.994;2023-04-24T06:33:39;3.50;;;1.07;;
34739;SDS011;20967;48.442;9.994;2023-04-24T06:36:08;2.20;;;1.02;;
34739;SDS011;20967;48.442;9.994;2023-04-24T06:38:36;3.83;;;1.98;;
34739;SDS011;20967;48.442;9.994;2023-04-24T06:41:03;2.35;;;1.20;;
34739;SDS011;20967;48.442;9.994;2023-04-24T06:43:31;2.02;;;1.17;;
34739;SDS011;20967;48.442;9.994;2023-04-24T06:45:59;3.17;;;1.20;;
34739;SDS011;20967;48.442;9.994;2023-04-24T06:48:27;3.47;;;1.30;;
34739;SDS011;20967;48.442;9.994;2023-04-24T06:50:54;3.85;;;1.15;;
34739;SDS011;20967;48.442;9.994;2023-04-24T06:53:22;1.72;;;1.20;;
34739;SDS011;20967;48.442;9.994;2023-04-24T06:55:49;6.17;;;1.42;;
34739;SDS011;20967;48.442;9.994;2023-04-24T06:58:17;5.05;;;1.70;;
34739;SDS011;20967;48.442;9.994;2023-04-24T07:00:45;1.85;;;1.15;;
34739;SDS011;20967;48.442;9.994;2023-04-24T07:03:12;3.45;;;1.20;;
34739;SDS011;20967;48.442;9.994;2023-04-24T07:05:40;5.53;;;1.00;;
34739;SDS011;20967;48.442;9.994;2023-04-24T07:08:10;3.65;;;1.30;;
34739;SDS011;20967;48.442;9.994;2023-04-24T07:10:37;5.55;;;1.27;;
34739;SDS011;20967;48.442;9.994;2023-04-24T07:13:05;5.10;;;1.50;;
34739;SDS011;20967;48.442;9.994;2023-04-24T07:15:33;2.27;;;1.20;;
34739;SDS011;20967;48.442;9.994;2023-04-24T07:18:01;4.03;;;1.62;;
34739;SDS011;20967;48.442;9.994;2023-04-24T07:20:28;1.65;;;1.10;;
34739;SDS011;20967;48.442;9.994;2023-04-24T07:22:56;1.40;;;0.90;;
34739;SDS011;20967;48.442;9.994;2023-04-24T07:25:24;2.37;;;0.85;;
34739;SDS011;20967;48.442;9.994;2023-04-24T07:27:52;3.02;;;1.30;;
34739;SDS011;20967;48.442;9.994;2023-04-24T07:30:20;2.83;;;1.50;;
34739;SDS011;20967;48.442;9.994;2023-04-24T07:32:47;2.47;;;1.17;;
34739;SDS011;20967;48.442;9.994;2023-04-24T07:35:15;4.65;;;1.80;;
34739;SDS011;20967;48.442;9.994;2023-04-24T07:37:43;2.55;;;1.15;;
34739;SDS011;20967;48.442;9.994;2023-04-24T07:40:12;1.32;;;1.00;;
34739;SDS011;20967;48.442;9.994;2023-04-24T07:42:40;3.00;;;1.10;;
34739;SDS011;20967;48.442;9.994;2023-04-24T07:45:08;4.37;;;1.30;;
34739;SDS011;20967;48.442;9.994;2023-04-24T07:47:35;4.50;;;1.10;;
34739;SDS011;20967;48.442;9.994;2023-04-24T07:50:05;3.45;;;1.37;;
34739;SDS011;20967;48.442;9.994;2023-04-24T07:52:32;2.42;;;1.07;;
34739;SDS011;20967;48.442;9.994;2023-04-24T07:55:05;3.58;;;1.10;;
34739;SDS011;20967;48.442;9.994;2023-04-24T07:57:33;1.98;;;1.40;;
34739;SDS011;20967;48.442;9.994;2023-04-24T08:00:02;1.65;;;1.10;;
34739;SDS011;20967;48.442;9.994;2023-04-24T08:02:30;1.87;;;1.12;;
34739;SDS011;20967;48.442;9.994;2023-04-24T08:04:57;3.60;;;1.05;;
34739;SDS011;20967;48.442;9.994;2023-04-24T08:07:25;2.58;;;1.40;;
34739;SDS011;20967;48.442;9.994;2023-04-24T08:09:52;4.95;;;1.62;;
34739;SDS011;20967;48.442;9.994;2023-04-24T08:12:20;2.75;;;1.30;;
34739;SDS011;20967;48.442;9.994;2023-04-24T08:14:47;3.10;;;1.30;;
34739;SDS011;20967;48.442;9.994;2023-04-24T08:17:16;3.12;;;1.98;;
34739;SDS011;20967;48.442;9.994;2023-04-24T08:19:43;3.25;;;1.25;;
34739;SDS011;20967;48.442;9.994;2023-04-24T08:22:12;3.80;;;1.47;;
34739;SDS011;20967;48.442;9.994;2023-04-24T08:24:40;4.10;;;1.75;;
34739;SDS011;20967;48.442;9.994;2023-04-24T08:27:08;4.08;;;1.50;;
34739;SDS011;20967;48.442;9.994;2023-04-24T08:29:36;4.78;;;1.45;;
34739;SDS011;20967;48.442;9.994;2023-04-24T08:32:03;3.85;;;1.42;;
34739;SDS011;20967;48.442;9.994;2023-04-24T08:34:31;5.12;;;2.15;;
34739;SDS011;20967;48.442;9.994;2023-04-24T08:36:58;3.40;;;1.82;;
34739;SDS011;20967;48.442;9.994;2023-04-24T08:39:27;2.55;;;1.37;;
34739;SDS011;20967;48.442;9.994;2023-04-24T08:41:55;6.05;;;1.77;;
34739;SDS011;20967;48.442;9.994;2023-04-24T08:44:23;2.05;;;1.15;;
34739;SDS011;20967;48.442;9.994;2023-04-24T08:46:50;4.30;;;1.07;;
34739;SDS011;20967;48.442;9.994;2023-04-24T08:49:18;3.30;;;1.30;;
34739;SDS011;20967;48.442;9.994;2023-04-24T08:51:46;1.82;;;1.12;;
34739;SDS011;20967;48.442;9.994;2023-04-24T08:54:16;2.77;;;1.22;;
34739;SDS011;20967;48.442;9.994;2023-04-24T08:56:44;1.17;;;0.98;;
34739;SDS011;20967;48.442;9.994;2023-04-24T08:59:12;2.02;;;1.10;;
34739;SDS011;20967;48.442;9.994;2023-04-24T09:01:40;2.05;;;1.07;;
34739;SDS011;20967;48.442;9.994;2023-04-24T09:04:09;1.47;;;1.17;;
34739;SDS011;20967;48.442;9.994;2023-04-24T09:06:38;1.95;;;1.25;;
34739;SDS011;20967;48.442;9.994;2023-04-24T09:09:06;4.22;;;1.45;;
34739;SDS011;20967;48.442;9.994;2023-04-24T09:11:34;1.62;;;1.10;;
34739;SDS011;20967;48.442;9.994;2023-04-24T09:14:02;3.00;;;1.20;;
34739;SDS011;20967;48.442;9.994;2023-04-24T09:16:29;2.08;;;1.20;;
34739;SDS011;20967;48.442;9.994;2023-04-24T09:18:57;2.02;;;1.27;;
34739;SDS011;20967;48.442;9.994;2023-04-24T09:21:24;3.58;;;1.40;;
34739;SDS011;20967;48.442;9.994;2023-04-24T09:24:00;2.08;;;1.20;;
34739;SDS011;20967;48.442;9.994;2023-04-24T09:28:57;2.65;;;0.80;;
34739;SDS011;20967;48.442;9.994;2023-04-24T09:31:26;2.02;;;1.00;;
34739;SDS011;20967;48.442;9.994;2023-04-24T09:33:58;1.30;;;1.17;;
34739;SDS011;20967;48.442;9.994;2023-04-24T09:36:29;4.20;;;1.02;;
34739;SDS011;20967;48.442;9.994;2023-04-24T09:39:01;1.22;;;0.90;;
34739;SDS011;20967;48.442;9.994;2023-04-24T09:41:28;1.82;;;0.88;;
34739;SDS011;20967;48.442;9.994;2023-04-24T09:43:56;3.60;;;1.27;;
34739;SDS011;20967;48.442;9.994;2023-04-24T09:46:30;3.25;;;1.00;;
34739;SDS011;20967;48.442;9.994;2023-04-24T09:51:34;2.12;;;1.10;;
34739;SDS011;20967;48.442;9.994;2023-04-24T09:56:32;0.93;;;0.70;;
34739;SDS011;20967;48.442;9.994;2023-04-24T09:59:08;2.08;;;1.00;;
34739;SDS011;20967;48.442;9.994;2023-04-24T10:04:04;1.42;;;0.85;;
34739;SDS011;20967;48.442;9.994;2023-04-24T10:06:35;1.92;;;1.10;;
34739;SDS011;20967;48.442;9.994;2023-04-24T10:09:02;4.08;;;1.20;;
34739;SDS011;20967;48.442;9.994;2023-04-24T10:11:30;2.02;;;1.37;;
34739;SDS011;20967;48.442;9.994;2023-04-24T10:13:57;2.92;;;1.00;;
34739;SDS011;20967;48.442;9.994;2023-04-24T10:16:26;1.42;;;0.70;;
34739;SDS011;20967;48.442;9.994;2023-04-24T10:18:55;2.08;;;1.00;;
34739;SDS011;20967;48.442;9.994;2023-04-24T10:21:22;1.85;;;1.20;;
34739;SDS011;20967;48.442;9.994;2023-04-24T10:23:50;4.10;;;1.45;;
34739;SDS011;20967;48.442;9.994;2023-04-24T10:26:17;5.62;;;1.40;;
34739;SDS011;20967;48.442;9.994;2023-04-24T10:28:46;1.87;;;0.95;;
34739;SDS011;20967;48.442;9.994;2023-04-24T10:31:14;3.87;;;1.00;;
34739;SDS011;20967;48.442;9.994;2023-04-24T10:33:42;1.65;;;0.95;;
34739;SDS011;20967;48.442;9.994;2023-04-24T10:36:10;1.27;;;0.95;;
34739;SDS011;20967;48.442;9.994;2023-04-24T10:38:39;1.42;;;1.20;;
34739;SDS011;20967;48.442;9.994;2023-04-24T10:41:11;3.87;;;1.00;;
34739;SDS011;20967;48.442;9.994;2023-04-24T10:46:08;4.47;;;1.00;;
34739;SDS011;20967;48.442;9.994;2023-04-24T10:48:41;1.07;;;0.78;;
34739;SDS011;20967;48.442;9.994;2023-04-24T10:51:05;1.17;;;0.70;;
34739;SDS011;20967;48.442;9.994;2023-04-24T10:53:37;1.42;;;0.88;;
34739;SDS011;20967;48.442;9.994;2023-04-24T10:56:05;1.27;;;0.70;;
34739;SDS011;20967;48.442;9.994;2023-04-24T10:58:51;1.05;;;0.75;;
34739;SDS011;20967;48.442;9.994;2023-04-24T11:01:27;1.60;;;1.20;;
34739;SDS011;20967;48.442;9.994;2023-04-24T11:06:32;3.80;;;1.20;;
34739;SDS011;20967;48.442;9.994;2023-04-24T11:11:28;6.10;;;1.05;;
34739;SDS011;20967;48.442;9.994;2023-04-24T11:16:30;2.65;;;1.15;;
34739;SDS011;20967;48.442;9.994;2023-04-24T11:19:05;1.75;;;1.02;;
34739;SDS011;20967;48.442;9.994;2023-04-24T11:21:31;2.55;;;1.25;;
34739;SDS011;20967;48.442;9.994;2023-04-24T11:24:09;2.02;;;1.10;;
34739;SDS011;20967;48.442;9.994;2023-04-24T11:26:28;1.80;;;1.00;;
34739;SDS011;20967;48.442;9.994;2023-04-24T11:29:08;5.47;;;1.05;;
34739;SDS011;20967;48.442;9.994;2023-04-24T11:34:14;1.32;;;0.85;;
34739;SDS011;20967;48.442;9.994;2023-04-24T11:39:06;4.55;;;1.05;;
34739;SDS011;20967;48.442;9.994;2023-04-24T11:41:34;3.70;;;1.12;;
34739;SDS011;20967;48.442;9.994;2023-04-24T11:44:02;4.37;;;1.15;;
34739;SDS011;20967;48.442;9.994;2023-04-24T11:46:30;2.65;;;0.95;;
34739;SDS011;20967;48.442;9.994;2023-04-24T11:48:58;1.35;;;1.02;;
34739;SDS011;20967;48.442;9.994;2023-04-24T11:51:27;4.05;;;1.12;;
34739;SDS011;20967;48.442;9.994;2023-04-24T11:53:55;1.75;;;0.78;;
34739;SDS011;20967;48.442;9.994;2023-04-24T11:56:23;4.33;;;0.82;;
34739;SDS011;20967;48.442;9.994;2023-04-24T11:58:53;7.37;;;1.65;;
34739;SDS011;20967;48.442;9.994;2023-04-24T12:01:21;2.85;;;1.35;;
34739;SDS011;20967;48.442;9.994;2023-04-24T12:03:50;3.35;;;0.80;;
34739;SDS011;20967;48.442;9.994;2023-04-24T12:06:18;1.85;;;1.00;;
34739;SDS011;20967;48.442;9.994;2023-04-24T12:08:46;1.10;;;0.95;;
34739;SDS011;20967;48.442;9.994;2023-04-24T12:11:14;2.25;;;0.90;;
34739;SDS011;20967;48.442;9.994;2023-04-24T12:13:42;2.17;;;1.00;;
34739;SDS011;20967;48.442;9.994;2023-04-24T12:16:10;4.33;;;1.10;;
34739;SDS011;20967;48.442;9.994;2023-04-24T12:18:43;1.20;;;1.00;;
34739;SDS011;20967;48.442;9.994;2023-04-24T12:23:39;2.20;;;0.70;;
34739;SDS011;20967;48.442;9.994;2023-04-24T12:26:08;1.95;;;0.93;;
34739;SDS011;20967;48.442;9.994;2023-04-24T12:28:36;2.65;;;0.80;;
34739;SDS011;20967;48.442;9.994;2023-04-24T12:31:04;1.40;;;0.80;;
34739;SDS011;20967;48.442;9.994;2023-04-24T12:33:32;2.00;;;0.95;;
34739;SDS011;20967;48.442;9.994;2023-04-24T12:36:01;1.22;;;0.80;;
34739;SDS011;20967;48.442;9.994;2023-04-24T12:38:29;3.37;;;0.85;;
34739;SDS011;20967;48.442;9.994;2023-04-24T12:41:03;1.70;;;0.88;;
34739;SDS011;20967;48.442;9.994;2023-04-24T12:45:59;1.95;;;0.72;;
34739;SDS011;20967;48.442;9.994;2023-04-24T12:48:27;4.12;;;0.93;;
34739;SDS011;20967;48.442;9.994;2023-04-24T12:50:56;0.95;;;0.68;;
34739;SDS011;20967;48.442;9.994;2023-04-24T12:53:26;1.77;;;0.80;;
34739;SDS011;20967;48.442;9.994;2023-04-24T12:55:55;1.42;;;0.60;;
34739;SDS011;20967;48.442;9.994;2023-04-24T12:58:23;3.52;;;0.75;;
34739;SDS011;20967;48.442;9.994;2023-04-24T13:00:51;2.90;;;0.50;;
34739;SDS011;20967;48.442;9.994;2023-04-24T13:03:18;0.78;;;0.53;;
34739;SDS011;20967;48.442;9.994;2023-04-24T13:05:46;1.40;;;0.95;;
34739;SDS011;20967;48.442;9.994;2023-04-24T13:08:14;0.85;;;0.60;;
34739;SDS011;20967;48.442;9.994;2023-04-24T13:10:43;1.95;;;0.93;;
34739;SDS011;20967;48.442;9.994;2023-04-24T13:13:11;2.02;;;0.70;;
34739;SDS011;20967;48.442;9.994;2023-04-24T13:15:38;1.67;;;0.70;;
34739;SDS011;20967;48.442;9.994;2023-04-24T13:18:06;1.20;;;0.53;;
34739;SDS011;20967;48.442;9.994;2023-04-24T13:20:34;1.45;;;0.68;;
34739;SDS011;20967;48.442;9.994;2023-04-24T13:23:02;0.55;;;0.47;;
34739;SDS011;20967;48.442;9.994;2023-04-24T13:25:34;0.72;;;0.57;;
34739;SDS011;20967;48.442;9.994;2023-04-24T13:27:58;1.02;;;0.70;;
34739;SDS011;20967;48.442;9.994;2023-04-24T13:30:26;2.70;;;0.80;;
34739;SDS011;20967;48.442;9.994;2023-04-24T13:32:53;4.53;;;0.70;;
34739;SDS011;20967;48.442;9.994;2023-04-24T13:35:21;1.42;;;0.65;;
34739;SDS011;20967;48.442;9.994;2023-04-24T13:37:48;6.92;;;1.45;;
34739;SDS011;20967;48.442;9.994;2023-04-24T13:40:16;0.93;;;0.60;;
34739;SDS011;20967;48.442;9.994;2023-04-24T13:42:43;1.30;;;0.90;;
34739;SDS011;20967;48.442;9.994;2023-04-24T13:45:11;1.10;;;0.60;;
34739;SDS011;20967;48.442;9.994;2023-04-24T13:47:39;3.10;;;1.10;;
34739;SDS011;20967;48.442;9.994;2023-04-24T13:50:08;4.37;;;0.88;;
34739;SDS011;20967;48.442;9.994;2023-04-24T13:52:36;1.72;;;0.90;;
34739;SDS011;20967;48.442;9.994;2023-04-24T13:55:06;8.03;;;0.90;;
34739;SDS011;20967;48.442;9.994;2023-04-24T13:57:33;1.20;;;0.60;;
34739;SDS011;20967;48.442;9.994;2023-04-24T14:00:00;4.30;;;0.78;;
34739;SDS011;20967;48.442;9.994;2023-04-24T14:02:29;2.75;;;0.82;;
34739;SDS011;20967;48.442;9.994;2023-04-24T14:04:57;1.15;;;0.70;;
34739;SDS011;20967;48.442;9.994;2023-04-24T14:07:24;3.27;;;0.78;;
34739;SDS011;20967;48.442;9.994;2023-04-24T14:09:54;1.82;;;0.80;;
34739;SDS011;20967;48.442;9.994;2023-04-24T14:12:22;1.80;;;0.60;;
34739;SDS011;20967;48.442;9.994;2023-04-24T14:14:49;2.22;;;0.93;;
34739;SDS011;20967;48.442;9.994;2023-04-24T14:17:17;0.70;;;0.70;;
34739;SDS011;20967;48.442;9.994;2023-04-24T14:19:44;0.90;;;0.70;;
34739;SDS011;20967;48.442;9.994;2023-04-24T14:22:12;0.80;;;0.80;;
34739;SDS011;20967;48.442;9.994;2023-04-24T14:24:40;1.37;;;1.00;;
34739;SDS011;20967;48.442;9.994;2023-04-24T14:27:07;1.20;;;0.80;;
34739;SDS011;20967;48.442;9.994;2023-04-24T14:29:35;7.28;;;1.45;;
34739;SDS011;20967;48.442;9.994;2023-04-24T14:32:02;2.35;;;0.85;;
34739;SDS011;20967;48.442;9.994;2023-04-24T14:34:30;1.10;;;0.90;;
34739;SDS011;20967;48.442;9.994;2023-04-24T14:36:57;1.77;;;0.88;;
34739;SDS011;20967;48.442;9.994;2023-04-24T14:39:25;3.00;;;0.70;;
34739;SDS011;20967;48.442;9.994;2023-04-24T14:41:53;4.83;;;1.42;;
34739;SDS011;20967;48.442;9.994;2023-04-24T14:44:21;2.50;;;0.95;;
34739;SDS011;20967;48.442;9.994;2023-04-24T14:46:49;4.33;;;1.20;;
34739;SDS011;20967;48.442;9.994;2023-04-24T14:49:16;1.32;;;0.90;;
34739;SDS011;20967;48.442;9.994;2023-04-24T14:51:44;1.42;;;0.78;;
34739;SDS011;20967;48.442;9.994;2023-04-24T14:54:11;2.77;;;1.00;;
34739;SDS011;20967;48.442;9.994;2023-04-24T14:56:39;1.00;;;0.80;;
34739;SDS011;20967;48.442;9.994;2023-04-24T14:59:07;2.37;;;0.88;;
34739;SDS011;20967;48.442;9.994;2023-04-24T15:01:34;2.90;;;1.32;;
34739;SDS011;20967;48.442;9.994;2023-04-24T15:04:04;4.17;;;0.90;;
34739;SDS011;20967;48.442;9.994;2023-04-24T15:06:31;1.47;;;0.82;;
34739;SDS011;20967;48.442;9.994;2023-04-24T15:08:59;3.45;;;0.80;;
34739;SDS011;20967;48.442;9.994;2023-04-24T15:11:26;2.25;;;1.05;;
34739;SDS011;20967;48.442;9.994;2023-04-24T15:13:54;1.52;;;0.80;;
34739;SDS011;20967;48.442;9.994;2023-04-24T15:16:22;1.67;;;1.02;;
34739;SDS011;20967;48.442;9.994;2023-04-24T15:18:50;0.88;;;0.88;;
34739;SDS011;20967;48.442;9.994;2023-04-24T15:21:19;1.30;;;0.98;;
34739;SDS011;20967;48.442;9.994;2023-04-24T15:23:46;1.62;;;0.68;;
34739;SDS011;20967;48.442;9.994;2023-04-24T15:26:14;0.80;;;0.75;;